createdAt,value
2018-12-06T00:00:55.444Z,1017.67
2018-12-06T00:01:55.459Z,1017.61
2018-12-06T00:02:55.426Z,1017.62
2018-12-06T00:03:55.437Z,1017.58
2018-12-06T00:04:55.403Z,1017.59
2018-12-06T00:05:55.428Z,1017.56
2018-12-06T00:06:55.437Z,1017.58
2018-12-06T00:07:55.380Z,1017.59
2018-12-06T00:08:55.363Z,1017.58
2018-12-06T00:09:55.368Z,1017.56
2018-12-06T00:10:55.352Z,1017.52
2018-12-06T00:11:55.331Z,1017.54
2018-12-06T00:12:55.323Z,1017.49
2018-12-06T00:13:55.321Z,1017.47
2018-12-06T00:14:55.329Z,1017.47
2018-12-06T00:15:55.289Z,1017.44
2018-12-06T00:16:55.280Z,1017.46
2018-12-06T00:17:55.271Z,1017.45
2018-12-06T00:18:55.268Z,1017.47
2018-12-06T00:19:55.282Z,1017.44
2018-12-06T00:20:55.238Z,1017.43
2018-12-06T00:21:55.243Z,1017.44
2018-12-06T00:22:55.216Z,1017.43
2018-12-06T00:23:55.203Z,1017.43
2018-12-06T00:24:55.210Z,1017.40
2018-12-06T00:25:55.185Z,1017.46
2018-12-06T00:26:55.173Z,1017.40
2018-12-06T00:27:55.160Z,1017.41
2018-12-06T00:29:03.014Z,1017.33
2018-12-06T00:29:55.173Z,1017.38
2018-12-06T00:30:55.138Z,1017.36
2018-12-06T00:31:55.118Z,1017.42
2018-12-06T00:32:55.114Z,1017.39
2018-12-06T00:33:55.101Z,1017.37
2018-12-06T00:34:55.115Z,1017.34
2018-12-06T00:35:55.082Z,1017.36
2018-12-06T00:36:55.077Z,1017.35
2018-12-06T00:37:55.063Z,1017.37
2018-12-06T00:38:55.048Z,1017.36
2018-12-06T00:39:55.053Z,1017.35
2018-12-06T00:40:55.022Z,1017.36
2018-12-06T00:41:55.015Z,1017.33
2018-12-06T00:42:55.010Z,1017.37
2018-12-06T00:43:55.017Z,1017.37
2018-12-06T00:44:55.002Z,1017.33
2018-12-06T00:45:54.976Z,1017.31
2018-12-06T00:46:54.964Z,1017.32
2018-12-06T00:47:54.958Z,1017.34
2018-12-06T00:48:54.956Z,1017.31
2018-12-06T00:49:54.960Z,1017.35
2018-12-06T00:50:54.930Z,1017.24
2018-12-06T00:51:54.921Z,1017.26
2018-12-06T00:52:54.905Z,1017.28
2018-12-06T00:53:54.896Z,1017.28
2018-12-06T00:54:54.918Z,1017.23
2018-12-06T00:55:54.868Z,1017.27
2018-12-06T00:56:54.854Z,1017.24
2018-12-06T00:57:54.850Z,1017.30
2018-12-06T00:58:54.837Z,1017.28
2018-12-06T00:59:54.836Z,1017.25
2018-12-06T01:00:54.846Z,1017.28
2018-12-06T01:01:54.813Z,1017.29
2018-12-06T01:02:54.801Z,1017.21
2018-12-06T01:03:54.794Z,1017.23
2018-12-06T01:04:54.780Z,1017.28
2018-12-06T01:05:54.784Z,1017.15
2018-12-06T01:06:54.758Z,1017.19
2018-12-06T01:07:54.749Z,1017.21
2018-12-06T01:08:54.731Z,1017.21
2018-12-06T01:09:54.728Z,1017.18
2018-12-06T01:10:54.738Z,1017.16
2018-12-06T01:11:54.706Z,1017.17
2018-12-06T01:12:54.687Z,1017.15
2018-12-06T01:13:54.680Z,1017.17
2018-12-06T01:14:54.665Z,1017.12
2018-12-06T01:15:54.691Z,1017.14
2018-12-06T01:16:54.650Z,1017.08
2018-12-06T01:17:54.652Z,1017.13
2018-12-06T01:18:54.624Z,1017.09
2018-12-06T01:19:54.630Z,1017.12
2018-12-06T01:20:54.645Z,1017.07
2018-12-06T01:21:54.608Z,1017.09
2018-12-06T01:22:54.594Z,1017.08
2018-12-06T01:23:54.582Z,1017.03
2018-12-06T01:24:54.568Z,1017.02
2018-12-06T01:25:54.572Z,1016.99
2018-12-06T01:26:54.546Z,1016.97
2018-12-06T01:27:54.556Z,1016.95
2018-12-06T01:28:54.534Z,1016.94
2018-12-06T01:29:54.522Z,1016.92
2018-12-06T01:30:54.573Z,1016.90
2018-12-06T01:31:54.492Z,1016.86
2018-12-06T01:32:54.492Z,1016.82
2018-12-06T01:33:54.475Z,1016.90
2018-12-06T01:34:54.462Z,1016.83
2018-12-06T01:35:54.476Z,1016.85
2018-12-06T01:36:54.440Z,1016.82
2018-12-06T01:37:54.426Z,1016.82
2018-12-06T01:38:54.444Z,1016.78
2018-12-06T01:39:54.418Z,1016.77
2018-12-06T01:40:54.402Z,1016.73
2018-12-06T01:41:54.406Z,1016.76
2018-12-06T01:42:54.380Z,1016.76
2018-12-06T01:43:54.386Z,1016.72
2018-12-06T01:44:54.366Z,1016.70
2018-12-06T01:45:54.370Z,1016.67
2018-12-06T01:46:54.344Z,1016.68
2018-12-06T01:47:54.332Z,1016.72
2018-12-06T01:48:54.322Z,1016.80
2018-12-06T01:49:54.306Z,1016.71
2018-12-06T01:50:54.324Z,1016.78
2018-12-06T01:51:54.290Z,1016.75
2018-12-06T01:52:54.290Z,1016.72
2018-12-06T01:53:54.263Z,1016.66
2018-12-06T01:54:54.250Z,1016.67
2018-12-06T01:55:54.303Z,1016.65
2018-12-06T01:56:54.225Z,1016.59
2018-12-06T01:57:54.228Z,1016.66
2018-12-06T01:58:54.220Z,1016.67
2018-12-06T01:59:54.211Z,1016.64
2018-12-06T02:00:54.205Z,1016.66
2018-12-06T02:01:54.180Z,1016.66
2018-12-06T02:02:54.171Z,1016.74
2018-12-06T02:03:54.168Z,1016.68
2018-12-06T02:04:54.170Z,1016.70
2018-12-06T02:05:54.169Z,1016.69
2018-12-06T02:06:54.121Z,1016.66
2018-12-06T02:07:54.114Z,1016.61
2018-12-06T02:08:54.112Z,1016.64
2018-12-06T02:09:54.105Z,1016.60
2018-12-06T02:10:54.109Z,1016.59
2018-12-06T02:11:54.072Z,1016.56
2018-12-06T02:12:54.063Z,1016.62
2018-12-06T02:13:54.071Z,1016.57
2018-12-06T02:14:54.051Z,1016.59
2018-12-06T02:15:54.036Z,1016.63
2018-12-06T02:16:54.047Z,1016.61
2018-12-06T02:17:54.010Z,1016.60
2018-12-06T02:18:54.006Z,1016.56
2018-12-06T02:19:53.995Z,1016.59
2018-12-06T02:20:53.985Z,1016.54
2018-12-06T02:21:53.986Z,1016.57
2018-12-06T02:22:54.007Z,1016.56
2018-12-06T02:23:53.953Z,1016.51
2018-12-06T02:24:53.941Z,1016.55
2018-12-06T02:25:53.932Z,1016.54
2018-12-06T02:26:53.953Z,1016.53
2018-12-06T02:27:53.912Z,1016.47
2018-12-06T02:28:53.895Z,1016.48
2018-12-06T02:29:53.889Z,1016.44
2018-12-06T02:30:53.872Z,1016.44
2018-12-06T02:31:53.917Z,1016.43
2018-12-06T02:32:53.862Z,1016.44
2018-12-06T02:33:53.841Z,1016.40
2018-12-06T02:34:53.834Z,1016.40
2018-12-06T02:35:53.819Z,1016.41
2018-12-06T02:36:53.837Z,1016.39
2018-12-06T02:37:53.817Z,1016.32
2018-12-06T02:38:53.787Z,1016.33
2018-12-06T02:39:53.781Z,1016.32
2018-12-06T02:40:53.773Z,1016.30
2018-12-06T02:41:53.771Z,1016.23
2018-12-06T02:42:53.753Z,1016.23
2018-12-06T02:43:53.734Z,1016.24
2018-12-06T02:44:53.731Z,1016.22
2018-12-06T02:45:53.715Z,1016.11
2018-12-06T02:46:53.723Z,1016.11
2018-12-06T02:47:53.693Z,1016.08
2018-12-06T02:48:53.691Z,1016.05
2018-12-06T02:49:53.674Z,1015.99
2018-12-06T02:50:53.679Z,1015.99
2018-12-06T02:51:53.651Z,1015.95
2018-12-06T02:52:53.679Z,1015.91
2018-12-06T02:53:53.628Z,1015.85
2018-12-06T02:54:53.621Z,1015.87
2018-12-06T02:55:53.633Z,1015.81
2018-12-06T02:56:53.601Z,1015.70
2018-12-06T02:57:53.616Z,1015.70
2018-12-06T02:58:53.581Z,1015.63
2018-12-06T02:59:53.573Z,1015.61
2018-12-06T03:00:53.553Z,1015.62
2018-12-06T03:01:53.570Z,1015.58
2018-12-06T03:02:53.572Z,1015.58
2018-12-06T03:03:53.525Z,1015.52
2018-12-06T03:04:53.520Z,1015.54
2018-12-06T03:05:53.502Z,1015.48
2018-12-06T03:06:53.500Z,1015.49
2018-12-06T03:07:53.500Z,1015.45
2018-12-06T03:08:53.488Z,1015.45
2018-12-06T03:09:53.462Z,1015.41
2018-12-06T03:10:53.457Z,1015.36
2018-12-06T03:11:53.458Z,1015.34
2018-12-06T03:12:53.452Z,1015.34
2018-12-06T03:13:53.422Z,1015.33
2018-12-06T03:14:53.414Z,1015.28
2018-12-06T03:15:53.467Z,1015.22
2018-12-06T03:16:53.394Z,1015.23
2018-12-06T03:17:53.405Z,1015.22
2018-12-06T03:18:53.368Z,1015.21
2018-12-06T03:19:53.362Z,1015.25
2018-12-06T03:20:53.346Z,1015.21
2018-12-06T03:21:53.337Z,1015.19
2018-12-06T03:22:53.346Z,1015.17
2018-12-06T03:23:53.330Z,1015.12
2018-12-06T03:24:53.310Z,1015.13
2018-12-06T03:25:53.306Z,1015.07
2018-12-06T03:26:53.310Z,1015.05
2018-12-06T03:27:53.299Z,1014.99
2018-12-06T03:28:53.264Z,1014.99
2018-12-06T03:29:53.260Z,1015.03
2018-12-06T03:30:53.256Z,1015.02
2018-12-06T03:31:53.241Z,1014.99
2018-12-06T03:32:53.248Z,1015.04
2018-12-06T03:33:53.220Z,1015.01
2018-12-06T03:34:53.201Z,1014.96
2018-12-06T03:35:53.215Z,1014.95
2018-12-06T03:36:53.186Z,1014.89
2018-12-06T03:37:53.193Z,1014.92
2018-12-06T03:38:53.161Z,1014.83
2018-12-06T03:39:53.163Z,1014.82
2018-12-06T03:40:53.138Z,1014.85
2018-12-06T03:41:53.127Z,1014.83
2018-12-06T03:42:53.132Z,1014.79
2018-12-06T03:43:53.989Z,1014.86
2018-12-06T03:44:53.125Z,1014.72
2018-12-06T03:45:53.090Z,1014.72
2018-12-06T03:46:53.080Z,1014.70
2018-12-06T03:47:53.089Z,1014.61
2018-12-06T03:48:53.057Z,1014.57
2018-12-06T03:49:53.049Z,1014.61
2018-12-06T03:50:53.042Z,1014.52
2018-12-06T03:51:53.028Z,1014.56
2018-12-06T03:52:53.052Z,1014.52
2018-12-06T03:53:53.021Z,1014.48
2018-12-06T03:54:53.001Z,1014.43
2018-12-06T03:55:52.981Z,1014.47
2018-12-06T03:56:52.982Z,1014.45
2018-12-06T03:57:52.961Z,1014.40
2018-12-06T03:58:52.982Z,1014.41
2018-12-06T03:59:52.937Z,1014.32
2018-12-06T04:00:52.936Z,1014.33
2018-12-06T04:01:52.919Z,1014.37
2018-12-06T04:02:52.911Z,1014.34
2018-12-06T04:03:52.923Z,1014.26
2018-12-06T04:04:52.884Z,1014.30
2018-12-06T04:05:52.877Z,1014.26
2018-12-06T04:06:52.871Z,1014.27
2018-12-06T04:07:52.857Z,1014.19
2018-12-06T04:08:52.861Z,1014.22
2018-12-06T04:09:52.840Z,1014.17
2018-12-06T04:10:52.826Z,1014.15
2018-12-06T04:11:52.818Z,1014.15
2018-12-06T04:12:52.811Z,1014.18
2018-12-06T04:13:52.815Z,1014.13
2018-12-06T04:14:52.792Z,1014.14
2018-12-06T04:15:52.778Z,1014.16
2018-12-06T04:16:52.763Z,1014.12
2018-12-06T04:17:52.751Z,1014.13
2018-12-06T04:18:52.757Z,1014.10
2018-12-06T04:19:52.734Z,1014.08
2018-12-06T04:20:52.774Z,1014.11
2018-12-06T04:21:52.712Z,1014.06
2018-12-06T04:22:52.702Z,1014.03
2018-12-06T04:23:52.710Z,1014.02
2018-12-06T04:24:52.678Z,1014.02
2018-12-06T04:25:52.667Z,1013.99
2018-12-06T04:26:52.661Z,1013.99
2018-12-06T04:27:52.658Z,1014.01
2018-12-06T04:28:52.662Z,1014.00
2018-12-06T04:29:52.637Z,1013.98
2018-12-06T04:30:52.611Z,1013.97
2018-12-06T04:31:52.607Z,1013.94
2018-12-06T04:32:52.596Z,1013.93
2018-12-06T04:33:52.602Z,1013.95
2018-12-06T04:34:52.577Z,1013.92
2018-12-06T04:35:52.571Z,1013.89
2018-12-06T04:36:52.556Z,1013.87
2018-12-06T04:37:52.537Z,1013.90
2018-12-06T04:38:52.554Z,1013.83
2018-12-06T04:39:52.573Z,1013.84
2018-12-06T04:40:52.515Z,1013.90
2018-12-06T04:41:52.507Z,1013.88
2018-12-06T04:42:52.485Z,1013.82
2018-12-06T04:43:52.494Z,1013.78
2018-12-06T04:44:52.464Z,1013.79
2018-12-06T04:45:52.460Z,1013.76
2018-12-06T04:46:52.450Z,1013.74
2018-12-06T04:47:52.490Z,1013.75
2018-12-06T04:48:52.445Z,1013.70
2018-12-06T04:49:52.412Z,1013.72
2018-12-06T04:50:52.405Z,1013.70
2018-12-06T04:51:52.394Z,1013.74
2018-12-06T04:52:52.398Z,1013.71
2018-12-06T04:53:52.404Z,1013.72
2018-12-06T04:54:52.370Z,1013.70
2018-12-06T04:55:52.356Z,1013.74
2018-12-06T04:56:52.347Z,1013.77
2018-12-06T04:57:52.330Z,1013.72
2018-12-06T04:58:52.325Z,1013.77
2018-12-06T04:59:52.336Z,1013.75
2018-12-06T05:00:52.300Z,1013.76
2018-12-06T05:01:52.288Z,1013.71
2018-12-06T05:02:52.276Z,1013.73
2018-12-06T05:03:52.270Z,1013.73
2018-12-06T05:04:52.276Z,1013.68
2018-12-06T05:05:52.247Z,1013.62
2018-12-06T05:06:52.249Z,1013.69
2018-12-06T05:07:52.225Z,1013.62
2018-12-06T05:08:52.210Z,1013.61
2018-12-06T05:09:52.224Z,1013.61
2018-12-06T05:10:52.197Z,1013.52
2018-12-06T05:11:52.181Z,1013.54
2018-12-06T05:12:52.175Z,1013.59
2018-12-06T05:13:52.162Z,1013.62
2018-12-06T05:14:52.193Z,1013.57
2018-12-06T05:15:52.138Z,1013.57
2018-12-06T05:16:52.128Z,1013.63
2018-12-06T05:17:52.118Z,1013.57
2018-12-06T05:18:52.116Z,1013.62
2018-12-06T05:19:52.132Z,1013.65
2018-12-06T05:20:52.090Z,1013.62
2018-12-06T05:21:52.074Z,1013.63
2018-12-06T05:22:52.065Z,1013.70
2018-12-06T05:23:52.055Z,1013.76
2018-12-06T05:24:52.063Z,1013.64
2018-12-06T05:25:52.044Z,1013.72
2018-12-06T05:26:52.023Z,1013.69
2018-12-06T05:27:52.015Z,1013.71
2018-12-06T05:28:52.002Z,1013.71
2018-12-06T05:29:52.008Z,1013.68
2018-12-06T05:30:51.982Z,1013.71
2018-12-06T05:31:51.968Z,1013.73
2018-12-06T05:32:51.964Z,1013.70
2018-12-06T05:33:52.047Z,1013.73
2018-12-06T05:34:51.981Z,1013.77
2018-12-06T05:35:51.931Z,1013.80
2018-12-06T05:36:51.913Z,1013.74
2018-12-06T05:37:51.919Z,1013.75
2018-12-06T05:38:51.896Z,1013.74
2018-12-06T05:39:51.925Z,1013.77
2018-12-06T05:40:51.875Z,1013.73
2018-12-06T05:41:51.862Z,1013.73
2018-12-06T05:42:51.851Z,1013.69
2018-12-06T05:43:51.840Z,1013.71
2018-12-06T05:44:51.839Z,1013.73
2018-12-06T05:45:51.839Z,1013.64
2018-12-06T05:46:51.811Z,1013.74
2018-12-06T05:47:51.797Z,1013.73
2018-12-06T05:48:51.814Z,1013.74
2018-12-06T05:49:51.800Z,1013.76
2018-12-06T05:50:51.783Z,1013.78
2018-12-06T05:51:51.754Z,1013.77
2018-12-06T05:52:51.745Z,1013.73
2018-12-06T05:53:51.734Z,1013.73
2018-12-06T05:54:51.721Z,1013.75
2018-12-06T05:55:51.746Z,1013.70
2018-12-06T05:56:51.710Z,1013.68
2018-12-06T05:57:51.700Z,1013.70
2018-12-06T05:58:51.679Z,1013.64
2018-12-06T05:59:51.678Z,1013.68
2018-12-06T06:00:51.679Z,1013.64
2018-12-06T06:01:51.656Z,1013.68
2018-12-06T06:02:51.640Z,1013.69
2018-12-06T06:03:51.625Z,1013.68
2018-12-06T06:04:51.628Z,1013.77
2018-12-06T06:05:51.633Z,1013.72
2018-12-06T06:06:51.599Z,1013.74
2018-12-06T06:07:51.582Z,1013.71
2018-12-06T06:08:51.578Z,1013.71
2018-12-06T06:09:51.562Z,1013.69
2018-12-06T06:10:51.576Z,1013.66
2018-12-06T06:11:51.545Z,1013.70
2018-12-06T06:12:51.529Z,1013.69
2018-12-06T06:13:51.536Z,1013.67
2018-12-06T06:14:51.512Z,1013.68
2018-12-06T06:15:51.518Z,1013.74
2018-12-06T06:16:51.488Z,1013.73
2018-12-06T06:17:51.493Z,1013.77
2018-12-06T06:18:51.546Z,1013.73
2018-12-06T06:19:51.473Z,1013.71
2018-12-06T06:20:51.479Z,1013.69
2018-12-06T06:21:51.443Z,1013.66
2018-12-06T06:22:51.428Z,1013.71
2018-12-06T06:23:51.413Z,1013.69
2018-12-06T06:24:51.406Z,1013.66
2018-12-06T06:25:51.440Z,1013.60
2018-12-06T06:26:51.387Z,1013.64
2018-12-06T06:27:51.373Z,1013.63
2018-12-06T06:28:51.362Z,1013.61
2018-12-06T06:29:51.442Z,1013.57
2018-12-06T06:30:51.365Z,1013.53
2018-12-06T06:31:51.355Z,1013.53
2018-12-06T06:32:51.318Z,1013.55
2018-12-06T06:33:51.311Z,1013.49
2018-12-06T06:34:51.312Z,1013.52
2018-12-06T06:35:51.301Z,1013.57
2018-12-06T06:36:51.290Z,1013.58
2018-12-06T06:37:51.473Z,1013.58
2018-12-06T06:38:51.255Z,1013.58
2018-12-06T06:39:51.243Z,1013.62
2018-12-06T06:40:51.303Z,1013.56
2018-12-06T06:41:51.648Z,1013.55
2018-12-06T06:42:51.219Z,1013.55
2018-12-06T06:43:51.199Z,1013.52
2018-12-06T06:44:51.191Z,1013.55
2018-12-06T06:45:53.200Z,1013.47
2018-12-06T06:46:51.196Z,1013.49
2018-12-06T06:47:52.008Z,1013.44
2018-12-06T06:48:54.049Z,1013.52
2018-12-06T06:49:51.147Z,1013.51
2018-12-06T06:50:51.129Z,1013.48
2018-12-06T06:51:51.138Z,1013.49
2018-12-06T06:52:51.711Z,1013.51
2018-12-06T06:53:52.047Z,1013.43
2018-12-06T06:54:51.090Z,1013.45
2018-12-06T06:55:51.078Z,1013.43
2018-12-06T06:56:51.088Z,1013.47
2018-12-06T06:57:51.129Z,1013.45
2018-12-06T06:58:51.043Z,1013.50
2018-12-06T06:59:51.038Z,1013.48
2018-12-06T07:00:51.022Z,1013.48
2018-12-06T07:01:51.026Z,1013.49
2018-12-06T07:02:51.004Z,1013.49
2018-12-06T07:03:50.998Z,1013.45
2018-12-06T07:04:50.980Z,1013.50
2018-12-06T07:05:50.972Z,1013.40
2018-12-06T07:06:50.989Z,1013.38
2018-12-06T07:07:50.966Z,1013.38
2018-12-06T07:08:50.964Z,1013.36
2018-12-06T07:09:51.586Z,1013.31
2018-12-06T07:10:50.925Z,1013.33
2018-12-06T07:11:50.932Z,1013.26
2018-12-06T07:12:50.918Z,1013.33
2018-12-06T07:13:50.885Z,1013.30
2018-12-06T07:14:50.895Z,1013.29
2018-12-06T07:15:50.875Z,1013.34
2018-12-06T07:16:50.860Z,1013.36
2018-12-06T07:17:50.862Z,1013.38
2018-12-06T07:18:50.840Z,1013.33
2018-12-06T07:19:50.829Z,1013.35
2018-12-06T07:20:50.810Z,1013.35
2018-12-06T07:21:50.804Z,1013.32
2018-12-06T07:22:50.873Z,1013.32
2018-12-06T07:23:50.796Z,1013.26
2018-12-06T07:24:50.767Z,1013.21
2018-12-06T07:25:50.770Z,1013.25
2018-12-06T07:26:50.747Z,1013.14
2018-12-06T07:27:50.769Z,1013.14
2018-12-06T07:28:50.752Z,1013.14
2018-12-06T07:29:50.724Z,1013.12
2018-12-06T07:30:50.797Z,1013.09
2018-12-06T07:31:50.700Z,1013.09
2018-12-06T07:32:50.722Z,1013.11
2018-12-06T07:33:50.673Z,1013.12
2018-12-06T07:34:50.664Z,1013.11
2018-12-06T07:35:50.658Z,1013.05
2018-12-06T07:36:50.651Z,1013.04
2018-12-06T07:37:50.656Z,1012.97
2018-12-06T07:38:50.639Z,1012.96
2018-12-06T07:39:50.613Z,1013.00
2018-12-06T07:40:50.612Z,1012.94
2018-12-06T07:41:50.609Z,1012.95
2018-12-06T07:42:50.610Z,1012.95
2018-12-06T07:43:50.568Z,1012.91
2018-12-06T07:44:50.564Z,1012.94
2018-12-06T07:45:50.552Z,1012.89
2018-12-06T07:46:50.548Z,1012.93
2018-12-06T07:47:50.552Z,1012.88
2018-12-06T07:48:50.515Z,1012.89
2018-12-06T07:49:50.504Z,1012.82
2018-12-06T07:50:50.494Z,1012.71
2018-12-06T07:51:50.487Z,1012.71
2018-12-06T07:52:50.494Z,1012.65
2018-12-06T07:53:50.472Z,1012.60
2018-12-06T07:54:50.464Z,1012.57
2018-12-06T07:55:50.450Z,1012.50
2018-12-06T07:56:50.427Z,1012.46
2018-12-06T07:57:50.454Z,1012.48
2018-12-06T07:58:50.407Z,1012.48
2018-12-06T07:59:50.430Z,1012.45
2018-12-06T08:00:50.406Z,1012.49
2018-12-06T08:01:50.388Z,1012.51
2018-12-06T08:02:50.372Z,1012.48
2018-12-06T08:03:50.396Z,1012.46
2018-12-06T08:04:50.344Z,1012.50
2018-12-06T08:05:50.334Z,1012.53
2018-12-06T08:06:50.319Z,1012.60
2018-12-06T08:07:50.318Z,1012.61
2018-12-06T08:08:50.322Z,1012.65
2018-12-06T08:09:50.296Z,1012.75
2018-12-06T08:10:50.278Z,1012.79
2018-12-06T08:11:50.268Z,1012.81
2018-12-06T08:12:50.327Z,1012.85
2018-12-06T08:13:50.276Z,1012.79
2018-12-06T08:14:50.244Z,1012.78
2018-12-06T08:15:50.240Z,1012.73
2018-12-06T08:16:50.217Z,1012.74
2018-12-06T08:17:50.214Z,1012.69
2018-12-06T08:18:50.218Z,1012.60
2018-12-06T08:19:50.188Z,1012.56
2018-12-06T08:20:50.173Z,1012.49
2018-12-06T08:21:50.166Z,1012.49
2018-12-06T08:22:50.148Z,1012.42
2018-12-06T08:23:50.171Z,1012.40
2018-12-06T08:24:50.130Z,1012.52
2018-12-06T08:25:50.126Z,1012.56
2018-12-06T08:26:50.123Z,1012.66
2018-12-06T08:27:50.130Z,1012.75
2018-12-06T08:28:50.105Z,1012.80
2018-12-06T08:29:50.083Z,1012.85
2018-12-06T08:30:50.092Z,1012.91
2018-12-06T08:31:50.058Z,1012.89
2018-12-06T08:32:50.052Z,1012.96
2018-12-06T08:33:50.141Z,1012.98
2018-12-06T08:34:50.024Z,1012.92
2018-12-06T08:35:50.016Z,1012.90
2018-12-06T08:36:50.006Z,1012.84
2018-12-06T08:37:50.008Z,1012.82
2018-12-06T08:38:49.999Z,1012.84
2018-12-06T08:39:49.996Z,1012.89
2018-12-06T08:40:49.962Z,1012.91
2018-12-06T08:41:49.952Z,1012.99
2018-12-06T08:42:49.942Z,1013.08
2018-12-06T08:43:49.938Z,1013.09
2018-12-06T08:44:49.942Z,1013.15
2018-12-06T08:45:49.923Z,1013.18
2018-12-06T08:46:49.898Z,1013.23
2018-12-06T08:47:49.894Z,1013.22
2018-12-06T08:48:49.884Z,1013.21
2018-12-06T08:49:49.954Z,1013.24
2018-12-06T08:50:49.881Z,1013.22
2018-12-06T08:51:49.850Z,1013.22
2018-12-06T08:52:49.845Z,1013.25
2018-12-06T08:53:49.823Z,1013.15
2018-12-06T08:54:49.838Z,1013.21
2018-12-06T08:55:49.812Z,1013.26
2018-12-06T08:56:49.796Z,1013.27
2018-12-06T08:57:49.778Z,1013.32
2018-12-06T08:58:49.770Z,1013.33
2018-12-06T08:59:49.780Z,1013.39
2018-12-06T09:00:49.752Z,1013.40
2018-12-06T09:01:49.744Z,1013.45
2018-12-06T09:02:49.723Z,1013.49
2018-12-06T09:03:49.718Z,1013.53
2018-12-06T09:04:49.771Z,1013.53
2018-12-06T09:05:49.701Z,1013.54
2018-12-06T09:06:49.690Z,1013.53
2018-12-06T09:07:49.681Z,1013.56
2018-12-06T09:08:49.666Z,1013.55
2018-12-06T09:09:49.718Z,1013.56
2018-12-06T09:10:51.752Z,1013.56
2018-12-06T09:11:49.649Z,1013.55
2018-12-06T09:12:49.632Z,1013.53
2018-12-06T09:13:49.612Z,1013.60
2018-12-06T09:14:49.618Z,1013.52
2018-12-06T09:15:49.586Z,1013.55
2018-12-06T09:16:49.576Z,1013.53
2018-12-06T09:17:49.575Z,1013.56
2018-12-06T09:18:49.564Z,1013.58
2018-12-06T09:19:49.568Z,1013.57
2018-12-06T09:20:49.535Z,1013.59
2018-12-06T09:21:49.525Z,1013.63
2018-12-06T09:22:49.547Z,1013.64
2018-12-06T09:23:49.536Z,1013.61
2018-12-06T09:24:49.511Z,1013.66
2018-12-06T09:25:49.486Z,1013.62
2018-12-06T09:26:49.474Z,1013.63
2018-12-06T09:27:49.457Z,1013.62
2018-12-06T09:28:49.448Z,1013.62
2018-12-06T09:29:49.482Z,1013.58
2018-12-06T09:30:49.437Z,1013.58
2018-12-06T09:31:49.418Z,1013.60
2018-12-06T09:32:49.412Z,1013.59
2018-12-06T09:33:49.399Z,1013.57
2018-12-06T09:34:49.395Z,1013.59
2018-12-06T09:35:49.533Z,1013.59
2018-12-06T09:36:49.382Z,1013.52
2018-12-06T09:37:49.359Z,1013.58
2018-12-06T09:38:49.345Z,1013.53
2018-12-06T09:39:49.343Z,1013.48
2018-12-06T09:40:49.342Z,1013.49
2018-12-06T09:41:49.325Z,1013.48
2018-12-06T09:42:49.307Z,1013.51
2018-12-06T09:43:49.293Z,1013.52
2018-12-06T09:44:49.283Z,1013.50
2018-12-06T09:45:49.301Z,1013.52
2018-12-06T09:46:49.256Z,1013.53
2018-12-06T09:47:49.263Z,1013.54
2018-12-06T09:48:49.238Z,1013.53
2018-12-06T09:49:49.235Z,1013.53
2018-12-06T09:50:49.249Z,1013.48
2018-12-06T09:51:49.209Z,1013.51
2018-12-06T09:52:49.195Z,1013.50
2018-12-06T09:53:49.191Z,1013.47
2018-12-06T09:54:49.179Z,1013.47
2018-12-06T09:55:49.188Z,1013.45
2018-12-06T09:56:49.168Z,1013.44
2018-12-06T09:57:49.140Z,1013.42
2018-12-06T09:58:49.137Z,1013.45
2018-12-06T09:59:49.146Z,1013.39
2018-12-06T10:00:49.137Z,1013.39
2018-12-06T10:01:49.100Z,1013.40
2018-12-06T10:02:49.087Z,1013.43
2018-12-06T10:03:49.094Z,1013.40
2018-12-06T10:04:49.075Z,1013.46
2018-12-06T10:05:49.076Z,1013.40
2018-12-06T10:06:49.049Z,1013.43
2018-12-06T10:07:49.093Z,1013.42
2018-12-06T10:08:49.042Z,1013.50
2018-12-06T10:09:49.015Z,1013.43
2018-12-06T10:10:49.077Z,1013.43
2018-12-06T10:11:48.997Z,1013.40
2018-12-06T10:12:48.985Z,1013.35
2018-12-06T10:13:48.981Z,1013.36
2018-12-06T10:14:48.974Z,1013.40
2018-12-06T10:15:48.998Z,1013.34
2018-12-06T10:16:48.947Z,1013.31
2018-12-06T10:17:48.929Z,1013.31
2018-12-06T10:18:48.939Z,1013.27
2018-12-06T10:19:48.906Z,1013.31
2018-12-06T10:20:48.919Z,1013.29
2018-12-06T10:21:48.885Z,1013.31
2018-12-06T10:22:48.916Z,1013.22
2018-12-06T10:23:48.862Z,1013.22
2018-12-06T10:24:48.854Z,1013.26
2018-12-06T10:25:48.867Z,1013.19
2018-12-06T10:26:48.833Z,1013.20
2018-12-06T10:27:48.868Z,1013.16
2018-12-06T10:28:48.823Z,1013.14
2018-12-06T10:29:48.801Z,1013.13
2018-12-06T10:30:48.813Z,1013.11
2018-12-06T10:31:48.791Z,1013.16
2018-12-06T10:32:48.766Z,1013.13
2018-12-06T10:33:48.763Z,1013.15
2018-12-06T10:34:53.462Z,1013.18
2018-12-06T10:35:48.776Z,1013.13
2018-12-06T10:36:48.725Z,1013.17
2018-12-06T10:37:48.721Z,1013.12
2018-12-06T10:38:48.700Z,1013.00
2018-12-06T10:39:48.698Z,1013.07
2018-12-06T10:40:48.700Z,1013.03
2018-12-06T10:41:48.689Z,1013.00
2018-12-06T10:42:48.657Z,1012.97
2018-12-06T10:43:48.650Z,1012.99
2018-12-06T10:44:48.646Z,1012.93
2018-12-06T10:45:48.638Z,1012.90
2018-12-06T10:46:48.644Z,1012.90
2018-12-06T10:47:48.610Z,1012.87
2018-12-06T10:48:48.595Z,1012.78
2018-12-06T10:49:48.593Z,1012.77
2018-12-06T10:50:48.579Z,1012.76
2018-12-06T10:51:48.600Z,1012.79
2018-12-06T10:52:48.583Z,1012.80
2018-12-06T10:53:48.541Z,1012.77
2018-12-06T10:54:48.538Z,1012.76
2018-12-06T10:55:48.530Z,1012.77
2018-12-06T10:56:48.532Z,1012.67
2018-12-06T10:57:48.520Z,1012.64
2018-12-06T10:58:48.496Z,1012.63
2018-12-06T10:59:48.481Z,1012.64
2018-12-06T11:00:48.474Z,1012.66
2018-12-06T11:01:48.480Z,1012.74
2018-12-06T11:02:48.466Z,1012.69
2018-12-06T11:03:48.475Z,1012.68
2018-12-06T11:04:48.428Z,1012.65
2018-12-06T11:05:48.420Z,1012.58
2018-12-06T11:06:48.423Z,1012.56
2018-12-06T11:07:48.407Z,1012.51
2018-12-06T11:08:48.400Z,1012.51
2018-12-06T11:09:48.378Z,1012.43
2018-12-06T11:10:48.359Z,1012.44
2018-12-06T11:11:48.392Z,1012.48
2018-12-06T11:12:48.340Z,1012.47
2018-12-06T11:13:48.334Z,1012.40
2018-12-06T11:14:48.336Z,1012.39
2018-12-06T11:15:48.338Z,1012.37
2018-12-06T11:16:48.323Z,1012.35
2018-12-06T11:17:48.292Z,1012.36
2018-12-06T11:18:48.271Z,1012.37
2018-12-06T11:19:48.271Z,1012.38
2018-12-06T11:20:48.258Z,1012.38
2018-12-06T11:21:48.279Z,1012.38
2018-12-06T11:22:48.299Z,1012.31
2018-12-06T11:23:48.245Z,1012.32
2018-12-06T11:24:48.209Z,1012.29
2018-12-06T11:25:48.209Z,1012.27
2018-12-06T11:26:48.297Z,1012.30
2018-12-06T11:27:49.088Z,1012.23
2018-12-06T11:28:48.174Z,1012.25
2018-12-06T11:29:48.158Z,1012.30
2018-12-06T11:30:48.156Z,1012.30
2018-12-06T11:31:48.166Z,1012.34
2018-12-06T11:32:48.128Z,1012.36
2018-12-06T11:33:48.119Z,1012.36
2018-12-06T11:34:48.164Z,1012.37
2018-12-06T11:35:48.134Z,1012.38
2018-12-06T11:36:48.184Z,1012.39
2018-12-06T11:37:48.083Z,1012.44
2018-12-06T11:38:48.068Z,1012.42
2018-12-06T11:39:48.063Z,1012.45
2018-12-06T11:40:48.044Z,1012.46
2018-12-06T11:41:48.062Z,1012.50
2018-12-06T11:42:48.064Z,1012.43
2018-12-06T11:43:48.012Z,1012.39
2018-12-06T11:44:48.022Z,1012.40
2018-12-06T11:45:47.998Z,1012.36
2018-12-06T11:46:47.981Z,1012.31
2018-12-06T11:47:48.004Z,1012.29
2018-12-06T11:48:47.967Z,1012.30
2018-12-06T11:49:47.951Z,1012.26
2018-12-06T11:50:47.943Z,1012.17
2018-12-06T11:51:47.943Z,1012.21
2018-12-06T11:52:47.938Z,1012.18
2018-12-06T11:53:47.905Z,1012.17
2018-12-06T11:54:47.904Z,1012.22
2018-12-06T11:55:47.892Z,1012.22
2018-12-06T11:56:47.890Z,1012.21
2018-12-06T11:57:47.905Z,1012.13
2018-12-06T11:58:47.854Z,1012.23
2018-12-06T11:59:47.858Z,1012.25
2018-12-06T12:00:47.848Z,1012.21
2018-12-06T12:01:47.822Z,1012.20
2018-12-06T12:02:47.830Z,1012.21
2018-12-06T12:03:47.817Z,1012.21
2018-12-06T12:04:47.830Z,1012.21
2018-12-06T12:05:47.792Z,1012.21